首页
METAR-TAF:

METAR-TAF

机场 :

Mankato, 明尼蘇達州, 美国

纬度: 44-13N, 经度: 093-55W, 海拔: 311米

当前天气观测

该预报发布于43分钟前的12:56 UTC
风速15节,风向西
温度 1°C
湿度 69%
气压 1012 hPa
能見度: 16.1公里
天空无云

METAR: KMKT 091256Z AUTO 27015KT 10SM CLR 01/M04 A2988 RMK AO2 SLP128 T00061039 FZRANO

时间: 08:39 (13:39 UTC)

预报

该预报发布于2小时和19分钟前的11:20 UTC
预报有效从09日的 12点(UTC)到 10日的 12点(UTC)
风速10节,风向西
能見度: 10公里
散云层高于7000英尺
从 09日的 1300点(UTC)
风速13节,风向西转西北,有时为19节阵风
能見度: 10公里
多云层高于10000英尺
从 09日的 1500点(UTC)
风速23节,风向西北,有时为31节阵风
能見度: 10公里
多云层高于5000英尺
从 09日的 2300点(UTC)
风速20节,风向北转西北,有时为27节阵风
能見度: 10公里
天空无云
从 10日的 0300点(UTC)
风速8节,风向西转西北
能見度: 10公里
天空无云

TAF: KMKT 091120Z 0912/1012 27010KT P6SM SCT070 FM091300 29013G19KT P6SM BKN100 FM091500 32023G31KT P6SM BKN050 FM092300 33020G27KT P6SM SKC FM100300 30008KT P6SM SKC

超过4000个机场的气象观测和天气预报(METAR&TAF报告)。

可查询的气象台以黄色和红色小点在地图上表示。

将鼠标移到小点上方,可查看气象台名称。

然后点击查看天气观测和预报。

如需切换地图:点击带黑十字的绿色按钮放大地图;点击带横线的绿色按钮缩小地图;或者点击绿色箭头查看邻近地区的地图。


METAR-TAF: